الصفحة الرئيسية
METAR-TAF:

METAR-TAF

مطار :

والس, فرنسا

دائرة عرض: 13-14S, خط طول: 176-10W, ارتفاع: 23 متر

METAR: مفقودة

زمن: 03:38 (15:38 UTC)

توقعات

تاريخ ووقت الإصدار 4ساعات و 38 دقيقة قبل الساعة 11:00UTC
التوقعات صالحة من25 الساعة 12 UTC إلى 26 الساعة 12 UTC
ريح 8 عقدة من الشمال/الشمال الشرقي
الرؤية 10 كم أو أكثر
غيوم متفرقة على ارتفاع 2500 قدم
غيوم مفككة على ارتفاع 3000 قدم
غيوم مفككة على ارتفاع 10000 قدم
مؤقت
من 25 الساعة 12 UTC إلى 25 الساعة 18 UTC
الرؤية: 1500 متر
غيوم مفككة على ارتفاع 1000 قدم
غيوم متفرقة على ارتفاع 1600 قدم, مزنة ركامية.
عاصفة رعدية, مطر
مؤقت
من 25 الساعة 18 UTC إلى 26 الساعة 02 UTC
الرؤية: 4500 متر
غيوم مفككة على ارتفاع 1400 قدم
غيوم متفرقة على ارتفاع 2000 قدم, مزن ركامية عمودية.
زخات من المطر

TAF: NLWW 251100Z 2512/2612 03008KT 9999 SCT025 BKN030 BKN100 TEMPO 2512/2518 1500 TSRA BKN010 SCT016CB TEMPO 2518/2602 4500 SHRA BKN014 SCT020TCU

أرصاد الطقس والتوقعات من أكثر من 4000 مطار (تقارير الطقس للمطار METAR والتنبؤ بالطقس بالمطارTAF).

المحطات المتاحة هي النقط الصفراء والحمراء على الخريطة.

حرك المؤشر فوق النقطة لمعرفة اسم المحطة.

ثم انقر لمعرفة أرصاد وتوقعات الطقس.

لتغيير الخارطة: اضغط على الأزرار الخضراء مع رمز الصليب الأسود للتكبير. على الزر الأخضر مع شرطة للتصغير، أو على الأسهم الخضراء للخرائط المجاورة.


METAR-TAF: